Time;durP1;ratioP1;P1;durP2;ratioP2;P2;SDS_P1;SDS_P2;PMS_P1;PMS_P2;Temp;Humidity;BMP_temperature;BMP_pressure;BME280_temperature;BME280_humidity;BME280_pressure;Samples;Min_cycle;Max_cycle;Signal;HPM_P1;HPM_P2
2022/10/12 00:02:52;;;;;;;14.03;7.93;;;14.30;99.90;;;;;;20907861;28;20075;-76
2022/10/12 00:12:52;;;;;;;18.40;8.70;;;14.30;99.90;;;;;;20907206;28;20044;-76
2022/10/12 00:22:53;;;;;;;17.67;7.93;;;14.20;99.90;;;;;;20953991;23;20052;-78
2022/10/12 00:32:55;;;;;;;14.57;8.30;;;14.30;99.90;;;;;;20922667;28;20105;-78
2022/10/12 00:42:56;;;;;;;;;;;14.20;99.90;;;;;;20922338;28;20500;-78
2022/10/12 00:53:03;;;;;;;16.13;7.78;;;14.20;99.90;;;;;;20920975;28;19923;-77
2022/10/12 01:03:06;;;;;;;20.40;7.80;;;14.30;99.90;;;;;;20938671;28;20487;-78
2022/10/12 01:13:07;;;;;;;40.17;11.05;;;14.30;99.90;;;;;;20903374;28;20064;-79
2022/10/12 01:23:17;;;;;;;19.30;8.57;;;14.10;99.90;;;;;;20928937;28;20501;-78
2022/10/12 01:33:29;;;;;;;26.23;8.45;;;14.10;99.90;;;;;;20980866;28;20135;-78
2022/10/12 01:43:36;;;;;;;23.60;8.45;;;14.20;99.90;;;;;;20995913;28;20039;-78
2022/10/12 01:54:01;;;;;;;24.05;10.25;;;14.30;99.90;;;;;;20995389;28;20184;-78
2022/10/12 02:04:19;;;;;;;25.27;10.52;;;14.20;99.90;;;;;;21014165;28;20048;-78
2022/10/12 02:14:25;;;;;;;27.63;11.55;;;14.00;99.90;;;;;;21015079;28;20051;-77
2022/10/12 02:24:29;;;;;;;39.15;13.75;;;13.80;99.90;;;;;;20995080;28;20414;-78
2022/10/12 02:34:40;;;;;;;31.98;12.57;;;13.90;99.90;;;;;;20996665;28;20037;-78
2022/10/12 02:44:43;;;;;;;26.00;11.57;;;14.00;99.90;;;;;;20993324;28;20520;-78
2022/10/12 02:54:44;;;;;;;21.55;10.65;;;13.80;99.90;;;;;;20976028;28;20043;-79
2022/10/12 03:04:45;;;;;;;20.10;8.15;;;14.10;99.90;;;;;;21013027;28;20040;-78
2022/10/12 03:14:46;;;;;;;19.60;9.57;;;14.20;99.90;;;;;;20995733;28;20414;-77
2022/10/12 03:24:47;;;;;;;31.43;11.77;;;14.20;99.90;;;;;;20997348;28;20055;-81
2022/10/12 03:34:48;;;;;;;30.83;12.67;;;14.10;99.90;;;;;;20978275;28;20040;-81
2022/10/12 03:44:48;;;;;;;28.13;11.97;;;13.70;99.90;;;;;;20991345;28;20166;-80
2022/10/12 03:54:49;;;;;;;17.43;8.73;;;13.80;99.90;;;;;;20993798;28;20123;-79
2022/10/12 04:04:50;;;;;;;27.90;10.13;;;13.80;99.90;;;;;;21013997;28;20089;-79
2022/10/12 04:14:51;;;;;;;25.17;10.33;;;14.00;99.90;;;;;;20931554;28;20060;-79
2022/10/12 04:24:51;;;;;;;24.37;11.87;;;14.00;99.90;;;;;;20929527;28;20076;-80
2022/10/12 04:34:52;;;;;;;23.10;10.80;;;13.90;99.90;;;;;;20933549;28;20041;-79
2022/10/12 04:44:53;;;;;;;20.53;8.87;;;13.80;99.90;;;;;;20899930;28;20487;-79
2022/10/12 04:54:54;;;;;;;33.13;10.83;;;13.70;99.90;;;;;;20960250;28;20052;-79
2022/10/12 05:04:54;;;;;;;24.53;10.63;;;13.50;99.90;;;;;;20998665;28;20083;-79
2022/10/12 05:14:55;;;;;;;27.70;12.13;;;13.50;99.90;;;;;;20991542;28;20033;-79
2022/10/12 05:24:56;;;;;;;48.93;16.20;;;13.50;99.90;;;;;;21026042;28;20024;-79
2022/10/12 05:34:57;;;;;;;102.20;24.97;;;13.00;99.90;;;;;;21007549;28;20179;-79
2022/10/12 05:44:57;;;;;;;68.50;21.00;;;12.90;99.90;;;;;;20943553;28;20047;-79
2022/10/12 05:54:58;;;;;;;70.47;19.87;;;12.90;99.90;;;;;;21018781;28;20039;-78
2022/10/12 06:04:59;;;;;;;67.40;23.10;;;12.90;99.90;;;;;;21001904;28;20068;-79
2022/10/12 06:15:00;;;;;;;96.67;27.93;;;13.00;99.90;;;;;;21000590;28;20040;-79
2022/10/12 06:25:01;;;;;;;59.37;22.83;;;13.00;99.90;;;;;;21128962;22;20078;-77
2022/10/12 06:35:02;;;;;;;39.63;13.50;;;13.00;99.90;;;;;;21119134;28;20052;-75
2022/10/12 06:45:03;;;;;;;63.83;23.30;;;13.20;99.90;;;;;;21086552;28;20630;-75
2022/10/12 06:55:05;;;;;;;29.23;13.73;;;13.30;99.90;;;;;;21080476;28;20522;-75
2022/10/12 07:05:07;;;;;;;37.08;13.25;;;13.30;99.90;;;;;;21079405;28;20690;-74
2022/10/12 07:15:08;;;;;;;32.58;12.93;;;13.40;99.90;;;;;;21079667;28;20097;-75
2022/10/12 07:25:09;;;;;;;27.97;13.00;;;13.60;99.90;;;;;;21078526;28;20082;-76
2022/10/12 07:35:09;;;;;;;41.20;15.03;;;13.60;99.90;;;;;;21084951;28;20052;-76
2022/10/12 07:45:10;;;;;;;34.60;13.57;;;13.70;99.90;;;;;;21088987;28;20036;-76
2022/10/12 07:55:11;;;;;;;33.13;13.27;;;13.80;99.90;;;;;;21096362;28;20119;-76
2022/10/12 08:05:12;;;;;;;31.47;13.37;;;13.90;99.90;;;;;;21089824;28;20036;-76
2022/10/12 08:15:13;;;;;;;33.40;13.53;;;14.00;99.90;;;;;;21089253;28;20032;-76
2022/10/12 08:25:14;;;;;;;23.97;11.37;;;14.10;99.90;;;;;;21088177;28;20090;-77
2022/10/12 08:35:15;;;;;;;25.17;12.10;;;14.30;99.90;;;;;;21087924;28;20047;-76
2022/10/12 08:45:30;;;;;;;28.27;11.50;;;14.20;99.90;;;;;;21101251;28;20040;-77
2022/10/12 08:55:45;;;;;;;31.27;10.60;;;14.30;99.90;;;;;;21078061;28;20036;-76
2022/10/12 09:06:16;;;;;;;24.83;10.10;;;14.50;99.90;;;;;;21091557;28;20036;-76
2022/10/12 09:16:24;;;;;;;29.48;13.85;;;14.50;99.90;;;;;;21088325;28;20044;-76
2022/10/12 09:26:34;;;;;;;21.67;10.02;;;14.50;99.90;;;;;;21087772;28;20042;-76
2022/10/12 09:36:39;;;;;;;30.40;11.98;;;14.80;99.90;;;;;;21088767;28;20032;-75
2022/10/12 09:46:56;;;;;;;25.13;10.40;;;14.90;99.90;;;;;;21087413;28;20379;-76
2022/10/12 09:56:57;;;;;;;30.02;13.18;;;14.90;99.90;;;;;;21083759;28;20068;-75
2022/10/12 10:07:11;;;;;;;24.80;11.80;;;15.00;99.90;;;;;;21085237;28;20036;-76
2022/10/12 10:17:15;;;;;;;30.77;10.60;;;15.30;99.90;;;;;;21086301;28;20035;-76
2022/10/12 10:27:36;;;;;;;26.98;10.63;;;15.30;99.90;;;;;;21092807;28;20032;-76
2022/10/12 10:37:44;;;;;;;28.15;10.98;;;15.50;99.90;;;;;;21064955;28;20371;-76
2022/10/12 10:47:45;;;;;;;20.63;10.95;;;15.40;99.90;;;;;;21080975;28;20559;-76
2022/10/12 10:58:01;;;;;;;26.73;9.85;;;15.60;99.90;;;;;;21079841;28;20048;-75
2022/10/12 11:08:12;;;;;;;22.60;8.65;;;15.70;99.90;;;;;;21061718;28;20425;-76
2022/10/12 11:18:24;;;;;;;21.33;8.60;;;15.60;99.90;;;;;;21079748;28;20538;-76
2022/10/12 11:28:30;;;;;;;16.67;8.02;;;15.60;99.90;;;;;;21077585;28;20040;-76
2022/10/12 11:38:54;;;;;;;18.05;8.48;;;16.00;99.90;;;;;;21058562;28;20062;-76
2022/10/12 11:49:11;;;;;;;19.98;8.38;;;16.00;99.90;;;;;;21056825;28;20384;-76
2022/10/12 11:59:18;;;;;;;16.65;8.23;;;16.20;99.90;;;;;;20991369;28;20406;-77
2022/10/12 12:09:21;;;;;;;24.60;9.82;;;16.30;99.90;;;;;;20991426;28;20036;-76
2022/10/12 12:19:39;;;;;;;19.52;8.60;;;16.00;99.90;;;;;;21059422;23;20031;-78
2022/10/12 12:29:49;;;;;;;19.42;8.95;;;16.60;99.90;;;;;;21170139;28;20047;-77
2022/10/12 12:39:54;;;;;;;28.48;7.95;;;17.00;99.90;;;;;;21163605;28;20050;-76
2022/10/12 12:50:34;;;;;;;15.57;7.57;;;16.70;99.90;;;;;;21161963;28;20039;-77
2022/10/12 13:00:47;;;;;;;16.70;7.70;;;16.20;99.90;;;;;;21112961;28;20097;-78
2022/10/12 13:11:15;;;;;;;13.23;7.18;;;16.70;99.90;;;;;;21074385;28;20480;-76
2022/10/12 13:21:21;;;;;;;19.17;7.97;;;17.50;99.90;;;;;;21081714;28;20044;-76
2022/10/12 13:31:26;;;;;;;24.60;7.65;;;17.40;99.90;;;;;;21080715;28;20036;-75
2022/10/12 13:41:30;;;;;;;25.50;7.40;;;17.40;99.90;;;;;;21085340;28;20446;-76
2022/10/12 13:51:32;;;;;;;16.95;7.18;;;17.50;99.90;;;;;;21078611;28;20048;-75
2022/10/12 14:01:53;;;;;;;20.58;7.80;;;17.50;99.90;;;;;;21083692;28;20036;-75
2022/10/12 14:11:55;;;;;;;18.77;6.25;;;17.50;99.90;;;;;;20999425;28;20090;-75
2022/10/12 14:21:57;;;;;;;;;;;17.30;99.90;;;;;;21121337;28;20138;-75
2022/10/12 14:32:01;;;;;;;24.58;8.27;;;17.20;99.90;;;;;;21165885;28;19991;-76
2022/10/12 14:42:20;;;;;;;18.25;8.13;;;17.20;99.90;;;;;;21164433;28;20036;-76
2022/10/12 14:52:23;;;;;;;14.88;7.05;;;17.20;99.90;;;;;;21089896;28;20036;-76
2022/10/12 15:02:27;;;;;;;16.55;7.40;;;16.80;99.90;;;;;;21079113;28;20040;-76
2022/10/12 15:12:29;;;;;;;18.25;7.50;;;17.20;99.90;;;;;;21059828;28;20096;-76
2022/10/12 15:22:30;;;;;;;17.27;7.78;;;18.10;99.90;;;;;;21090342;28;20047;-76
2022/10/12 15:32:30;;;;;;;16.40;7.23;;;17.90;99.90;;;;;;21142117;28;20040;-77
2022/10/12 15:42:31;;;;;;;14.70;7.80;;;18.00;99.90;;;;;;21123863;28;20118;-77
2022/10/12 15:52:32;;;;;;;16.57;7.93;;;17.20;99.90;;;;;;21087791;28;20531;-76
2022/10/12 16:02:34;;;;;;;17.30;8.20;;;16.60;99.90;;;;;;21156828;28;20036;-75
2022/10/12 16:12:34;;;;;;;;;;;16.10;99.90;;;;;;21158621;28;20074;-76
2022/10/12 16:22:36;;;;;;;56.83;13.30;;;16.10;99.90;;;;;;21081347;28;19912;-75
2022/10/12 16:32:37;;;;;;;29.83;10.98;;;16.00;99.90;;;;;;21073425;28;20075;-74
2022/10/12 16:42:37;;;;;;;19.90;9.23;;;15.50;99.90;;;;;;21108608;28;20035;-75
2022/10/12 16:52:38;;;;;;;21.17;8.60;;;15.10;99.90;;;;;;21154528;28;20032;-75
2022/10/12 17:02:39;;;;;;;19.43;8.33;;;15.00;99.90;;;;;;21161470;28;20040;-76
2022/10/12 17:12:40;;;;;;;19.17;8.47;;;14.80;99.90;;;;;;21172047;28;20524;-75
2022/10/12 17:22:41;;;;;;;18.93;8.33;;;14.80;99.90;;;;;;21093488;28;20051;-76
2022/10/12 17:32:42;;;;;;;22.00;9.33;;;14.60;99.90;;;;;;21141287;28;20031;-75
2022/10/12 17:42:43;;;;;;;35.15;10.13;;;14.60;99.90;;;;;;21168750;28;20035;-75
2022/10/12 17:52:44;;;;;;;26.23;9.90;;;14.50;99.90;;;;;;21090488;28;20050;-74
2022/10/12 18:02:45;;;;;;;70.27;11.47;;;14.40;99.90;;;;;;21083613;28;20040;-75
2022/10/12 18:12:45;;;;;;;29.50;11.07;;;14.30;99.90;;;;;;21081942;28;20046;-74
2022/10/12 18:22:46;;;;;;;29.10;10.87;;;14.30;99.90;;;;;;21088726;28;20504;-74
2022/10/12 18:32:47;;;;;;;26.10;10.03;;;14.20;99.90;;;;;;21089516;28;20070;-74
2022/10/12 18:42:48;;;;;;;25.00;9.70;;;14.00;99.90;;;;;;21119697;28;20069;-75
2022/10/12 18:52:49;;;;;;;32.20;10.63;;;13.70;99.90;;;;;;21123673;22;20052;-80
2022/10/12 19:02:49;;;;;;;23.40;9.70;;;13.70;99.90;;;;;;21048668;28;20055;-79
2022/10/12 19:12:50;;;;;;;28.20;9.93;;;13.70;99.90;;;;;;21032847;28;20028;-78
2022/10/12 19:22:51;;;;;;;25.50;10.90;;;13.70;99.90;;;;;;21042122;28;20397;-79
2022/10/12 19:32:52;;;;;;;25.90;10.67;;;13.70;99.90;;;;;;21016840;28;20040;-81
2022/10/12 19:42:53;;;;;;;28.63;10.40;;;13.70;99.90;;;;;;21021315;28;20040;-80
2022/10/12 19:52:54;;;;;;;21.03;10.40;;;13.60;99.90;;;;;;21030726;28;20258;-82
2022/10/12 20:02:54;;;;;;;24.63;11.03;;;13.50;99.90;;;;;;21029088;28;20032;-79
2022/10/12 20:12:55;;;;;;;26.57;12.00;;;13.30;99.90;;;;;;21044998;28;20557;-79
2022/10/12 20:22:56;;;;;;;27.63;10.83;;;13.30;99.90;;;;;;21002514;28;20748;-79
2022/10/12 20:32:57;;;;;;;23.40;11.73;;;13.30;99.90;;;;;;21028663;28;20036;-80
2022/10/12 20:42:58;;;;;;;33.30;11.50;;;13.40;99.90;;;;;;21042260;28;20652;-79
2022/10/12 20:52:58;;;;;;;27.37;11.77;;;13.20;99.90;;;;;;21044384;28;20060;-79
2022/10/12 21:02:59;;;;;;;40.83;13.13;;;13.20;99.90;;;;;;21047272;28;20511;-79
2022/10/12 21:13:00;;;;;;;26.27;12.00;;;13.30;99.90;;;;;;21019311;28;20406;-79
2022/10/12 21:23:01;;;;;;;30.00;12.93;;;13.30;99.90;;;;;;21064742;28;20063;-79
2022/10/12 21:33:02;;;;;;;28.97;13.20;;;13.20;99.90;;;;;;21063804;28;20528;-78
2022/10/12 21:43:03;;;;;;;35.57;13.83;;;13.10;99.90;;;;;;21079691;28;20044;-79
2022/10/12 21:53:03;;;;;;;30.43;13.10;;;13.00;99.90;;;;;;21062860;28;20058;-78
2022/10/12 22:03:04;;;;;;;24.10;13.83;;;12.80;99.90;;;;;;21075483;28;20046;-79
2022/10/12 22:13:06;;;;;;;34.17;12.93;;;12.80;99.90;;;;;;21087812;28;20067;-82
2022/10/12 22:23:07;;;;;;;28.87;13.77;;;12.60;99.90;;;;;;21092849;28;20519;-82
2022/10/12 22:33:08;;;;;;;25.83;12.23;;;12.60;99.90;;;;;;21070666;28;20497;-80
2022/10/12 22:43:09;;;;;;;35.23;14.43;;;12.40;99.90;;;;;;21067881;28;20044;-80
2022/10/12 22:53:10;;;;;;;23.63;8.93;;;12.50;99.90;;;;;;21081649;28;20066;-80
2022/10/12 23:03:10;;;;;;;32.30;14.33;;;12.80;99.90;;;;;;21085598;28;20071;-79
2022/10/12 23:13:11;;;;;;;24.43;11.13;;;13.10;99.90;;;;;;21087196;28;20105;-80
2022/10/12 23:23:12;;;;;;;29.03;10.87;;;12.80;99.90;;;;;;21067763;28;20386;-79
2022/10/12 23:33:14;;;;;;;33.63;12.67;;;12.70;99.90;;;;;;21052787;28;20040;-78
2022/10/12 23:43:14;;;;;;;33.90;12.52;;;12.50;99.90;;;;;;21069915;28;20500;-79
2022/10/12 23:53:15;;;;;;;35.20;12.43;;;12.50;99.90;;;;;;21068290;28;20408;-79
